Whale Point, California Weather observations

Data are for observation ending at time listed.
 Day   Time    Ave.   Ave.  Ave.  Vector   Max.   Stn.    Total    Solar   Ave.  
  of    of     Air    Rel.  Wind   Wind    Wind   Baro.  Precip.   Rad.    Soil  
Year   Day     Temp.  Hum.  Speed  Dir.    Gust   Pres.                    Temp. 
2026   (PST)    F      %     mph   deg.    mph     mb.     in.     W/m2     F   
------------------------------------------------------------------------------
 127    5:10   42.8   100    1.4    29      2.9   996.0    0.00    2750    65.5
 127    5:20   42.4   100    0.9   183      2.8   995.9    0.00    2774    65.4
 127    5:30   42.1   100    0.4   192      1.3   995.9    0.00    2783    65.4
 127    5:40   42.0   100    0.9   187      2.4   996.0    0.00    2809    65.4
 127    5:50   41.9   100    0.2   175      1.5   996.0    0.00    2810    65.3
 127    6:00   41.8   100    0.2    60      1.0   996.0    0.00    2790    65.3
 127    6:10   41.6   100    0.7   102      2.8   996.2    0.00    2760    65.2
 127    6:20   41.6   100    0.9   212      2.3   996.2    0.00    2790    65.1
 127    6:30   41.3   100    0.2    23      1.0   996.2    0.00    2772    65.1
 127    6:40   41.3   100    0.5   170      1.5   996.2    0.00    2766    65.0
 127    6:50   41.4   100    1.3   216      2.9   996.3    0.00    2761    65.0
 127    7:00   41.5   100    1.6   208      3.7   996.3    0.00    2737    64.9
 127    7:10   41.5   100    1.3   184      3.1   996.3    0.00    2599    64.9
 127    7:20   42.0   100    1.6   186      3.1   996.2    0.00    2472    64.8
 127    7:30   41.6   100    2.0   214      3.6   996.2    0.00    2291    64.8
 127    7:40   41.7   100    1.0   203      2.4   996.2    0.00    2174    64.8
 127    7:50   42.8   100    1.1   188      2.7   996.2    0.00    2010    64.7
 127    8:00   43.4   100    1.7   212      4.0   996.3    0.00    1744    64.7
 127    8:10   42.8   100    3.3   212      5.4   996.4    0.00    1547    64.7
 127    8:20   41.9   100    2.9   212      4.9   996.5    0.00    1500    64.7
 127    8:30   41.7   100    3.3   219      5.6   996.5    0.00    1497    64.7
 127    8:40   42.0   100    1.9   214      3.8   996.5    0.00    1480    64.6
 127    8:50   42.8   100    1.9   214      3.7   996.4    0.00    1375    64.6
 127    9:00   43.1   100    2.6   212      5.3   996.5    0.00    1240    64.5
 127    9:10   43.0   100    4.0   211      6.2   996.6    0.00    1122    64.5
 127    9:20   42.8   100    4.0   221      6.2   996.7    0.00    1098    64.6
 127    9:30   43.1   100    3.1   213      4.7   996.6    0.00    1105    64.6
 127    9:40   43.7   100    3.4   212      5.1   996.6    0.00    1044    64.6
 127    9:50   43.5    98    3.5   219      5.5   996.7    0.00     957    64.6
 127   10:00   43.6    98    3.7   216      6.9   996.7    0.00     916    64.6
 127   10:10   43.8    96    3.2   200      5.1   996.8    0.00     883    64.6
 127   10:20   45.0    93    2.9   208      5.2   996.7    0.00     805    64.7
 127   10:30   44.7    90    3.9   206      5.7   996.8    0.00     725    64.7
 127   10:40   44.7    88    4.1   205      6.1   996.7    0.00     697    64.8
 127   10:50   44.4    88    5.0   200      7.0   996.7    0.00     693    64.8
 127   11:00   44.5    88    4.8   207      6.6   996.7    0.00     722    64.9
 127   11:10   44.7    89    5.3   202      7.0   996.8    0.00     764    64.9
 127   11:20   45.2    88    4.5   215      6.2   996.7    0.00     772    64.9
 127   11:30   46.5    86    4.0   217      6.6   996.5    0.00     742    65.0
 127   11:40   46.7    85    4.3   213      6.3   996.5    0.00     730    65.0
 127   11:50   47.1    84    4.6   216      6.7   996.4    0.00     742    65.1
 127   12:00   47.7    83    4.8   207      6.7   996.3    0.00     741    65.2
 127   12:10   48.5    82    4.8   213      8.0   996.4    0.00     771    65.2
 127   12:20   49.0    82    4.7   215      6.9   996.3    0.00     789    65.3
 127   12:30   49.6    82    5.2   219      7.1   996.3    0.00     818    65.4
 127   12:40   49.5    84    4.9   224      8.4   996.3    0.00     863    65.5
 127   12:50   50.6    84    5.0   228      7.5   996.2    0.00     868    65.6
 127   13:00   51.5    82    4.2   203      6.8   996.1    0.00     907    65.7
 127   13:10   53.4    77    4.1   209      6.1   996.1    0.00     885    65.8
 127   13:20   54.2    75    4.9   215      6.9   996.0    0.00     853    65.9
 127   13:30   53.3    78    5.4   214      8.1   995.8    0.00     884    66.0
 127   13:40   54.6    75    5.9   209      8.8   995.8    0.00     867    66.1
 127   13:50   54.9    75    4.4   227      8.6   995.9    0.00     890    66.3
 127   14:00   56.1    74    3.7   230      8.6   995.9    0.00     885    66.4
 127   14:10   56.6    74    4.4   226      8.6   995.9    0.00     857    66.6
 127   14:20   57.8    73    4.5   225      9.7   995.8    0.00     817    66.7
 127   14:30   58.5    72    4.5   226      9.3   995.7    0.00     790    66.9
 127   14:40   58.3    75    4.5   228      9.5   995.6    0.00     818    67.0
 127   14:50   59.1    73    4.9   225      8.4   995.6    0.00     792    67.2
 127   15:00   58.8    74    4.5   233      9.0   995.5    0.00     810    67.4
 127   15:10   59.1    75    2.8   244      8.5   995.3    0.00     852    67.5
 127   15:20   59.8    73    4.6   227      9.4   995.2    0.00     795    67.7
 127   15:30   59.4    73    5.2   228      8.8   995.2    0.00     789    67.8
 127   15:40   60.2    71    4.2   232      8.3   995.2    0.00     779    68.0
 127   15:50   59.3    73    4.7   230      8.2   995.2    0.00     808    68.1
 127   16:00   58.9    74    4.8   221      9.1   995.1    0.00     846    68.3
 127   16:10   59.2    74    3.8   225      7.3   995.1    0.00     906    68.5
 127   16:20   59.2    74    3.8   230      9.3   995.2    0.00     930    68.6
 127   16:30   60.7    72    2.8   242      6.5   995.3    0.00     937    68.8
 127   16:40   60.9    70    2.6   266      8.1   995.2    0.00     929    68.9
 127   16:50   59.7    73    2.7   272      8.8   995.1    0.00    1019    69.0
 127   17:00   60.0    72    2.6   247      6.4   995.0    0.00    1051    69.2
 127   17:10   58.9    75    3.4   231      6.4   994.9    0.00    1102    69.3
 127   17:20   57.9    78    3.3   231      7.7   994.8    0.00    1210    69.4
 127   17:30   58.6    76    2.2   241      6.6   994.8    0.00    1275    69.6
 127   17:40   58.4    77    2.5   240      5.9   994.8    0.00    1349    69.7
 127   17:50   58.1    77    3.2   228      6.0   994.7    0.00    1390    69.7
 127   18:00   56.9    80    3.2   222      5.8   994.6    0.00    1480    69.8
 127   18:10   56.3    82    3.1   233      5.6   994.6    0.00    1561    69.9
 127   18:20   55.6    83    3.0   197      6.5   994.5    0.00    1630    70.0
 127   18:30   55.5    84    1.8   219      4.0   994.5    0.00    1702    70.0
 127   18:40   55.8    83    0.8   236      1.8   994.5    0.00    1811    70.1
 127   18:50   54.5    86    1.0   215      2.0   994.5    0.00    1834    70.1
 127   19:00   53.3    90    1.2   203      2.9   994.5    0.00    1860    70.1
 127   19:10   52.3    93    1.7   193      3.4   994.6    0.00    1950    70.2
 127   19:20   51.6    96    1.6   159      3.7   994.6    0.00    2069    70.1
 127   19:30   51.3    97    1.7   167      4.4   994.7    0.00    2182    70.1
 127   19:40   50.8    97    1.5   117      4.7   994.7    0.00    2297    70.1
 127   19:50   50.8    96    2.1   156      3.9   994.7    0.00    2398    70.1
 127   20:00   50.3    96    2.2   198      4.3   994.8    0.00    2510    70.0
 127   20:10   49.8    97    1.7   145      4.7   995.0    0.00    2591    70.0
 127   20:20   49.5    97    0.5   186      2.5   995.0    0.00    2697    69.9
 127   20:30   49.4    98    2.7   133      5.7   995.0    0.00    2767    69.8
 127   20:40   49.0    98    3.1   147      5.5   995.0    0.00    2858    69.8
 127   20:50   48.8    99    1.9   175      4.4   995.1    0.00    2924    69.7
 127   21:00   48.6   100    1.6   154      5.6   995.2    0.00    2966    69.6
 127   21:10   48.6   100    3.8   142      7.2   995.2    0.00    3046    69.5
 127   21:20   48.4   100    4.8   136      7.8   995.2    0.00    3099    69.4
 127   21:30   48.1   100    2.1   139      5.4   995.2    0.00    3104    69.3
 127   21:40   47.9   100    3.6   140      6.3   995.2    0.00    3102    69.2
 127   21:50   47.8   100    3.5   143      6.7   995.2    0.00    3137    69.2
 127   22:00   47.8   100    2.8   155      7.2   995.2    0.00    3170    69.1
 127   22:10   47.7   100    1.8    37      5.6   995.2    0.00    3189    69.0
 127   22:20   47.5   100    1.8   128      5.6   995.2    0.00    3193    68.9
 127   22:30   47.5   100    2.0    88      6.1   995.2    0.00    3184    68.8
 127   22:40   47.3   100    1.3   309      4.5   995.2    0.00    3178    68.7
 127   22:50   47.0   100    1.1    20      4.0   995.3    0.00    3142    68.6
 127   23:00   46.7   100    1.1    56      2.6   995.2    0.00    3089    68.6
 127   23:10   46.3   100    1.3    90      4.0   995.0    0.00    3041    68.5
 127   23:20   45.9   100    1.4   264      3.9   995.0    0.00    3038    68.4
 127   23:30   45.6   100    1.3   318      3.4   995.2    0.00    3013    68.3
 127   23:40   45.2   100    3.6    21      6.9   995.3    0.00    2972    68.2
 127   23:50   44.5   100    3.1    57      7.7   995.2    0.00    2866    68.1
 128    0:00   44.1   100    1.4   182      2.0   995.2    0.00    2845    68.1
 128    0:10   44.0   100    1.4   230      3.4   995.3    0.00    2859    68.0
 128    0:20   43.9   100    0.8    44      3.5   995.2    0.00    2852    67.9
 128    0:30   43.8   100    1.1   248      5.0   995.2    0.00    2826    67.9
 128    0:40   43.7   100    1.5   195      3.9   995.2    0.00    2836    67.8
 128    0:50   43.5   100    1.8    65      3.9   995.1    0.00    2793    67.7
 128    1:00   43.2   100    1.2    49      2.7   995.0    0.00    2743    67.6
 128    1:10   42.9   100    1.1    16      2.5   995.1    0.00    2739    67.6
 128    1:20   42.7   100    2.0    22      5.8   995.1    0.00    2745    67.5
 128    1:30   42.4   100    0.6    28      1.8   995.0    0.00    2735    67.4
 128    1:40   42.1   100    0.8   258      2.1   995.1    0.00    2764    67.4
 128    1:50   42.0   100    1.4   276      5.2   995.2    0.00    2771    67.3
 128    2:00   42.0   100    1.6   216      3.8   995.3    0.00    2755    67.2
 128    2:10   41.9   100    0.8   211      2.3   995.1    0.00    2736    67.2
 128    2:20   41.1   100    1.6   186      3.7   995.1    0.00    2742    67.2
 128    2:30   40.4   100    0.8   262      2.4   995.2    0.00    2723    67.1
 128    2:40   40.0   100    1.5    13      3.5   995.2    0.00    2712    67.0
 128    2:50   39.6   100    1.3   310      3.6   995.2    0.00    2716    67.0
 128    3:00   39.4   100    0.5    76      1.6   995.2    0.00    2712    66.9
 128    3:10   39.2   100    0.8   323      1.9   995.2    0.00    2723    66.9
 128    3:20   39.0   100    1.4   329      2.6   995.2    0.00    2742    66.8
 128    3:30   38.7   100    1.6   280      3.3   995.3    0.00    2738    66.8
 128    3:40   38.7   100    0.8    69      1.8   995.3    0.00    2736    66.7
 128    3:50   38.6   100    1.2    81      2.9   995.2    0.00    2725    66.6
 128    4:00   38.3   100    1.2    64      2.4   995.2    0.00    2719    66.6
 128    4:10   38.2   100    1.6    44      5.5   995.2    0.00    2725    66.5
 128    4:20   37.6   100    3.2    44      5.8   995.2    0.00    2736    66.5
 128    4:30   37.2   100    2.4    17      6.4   995.1    0.00    2754    66.4
 128    4:40   37.2   100    0.8   233      2.7   995.2    0.00    2816    66.4
 128    4:50   37.3   100    0.7   354      3.4   995.4    0.00    2838    66.3
 128    5:00   37.2   100    2.8   350      5.8   995.5    0.00    2835    66.3

Return to Whale Point graphs page.


Western Regional Climate Center,wrcc@dri.edu